createdAt,value
2018-06-28T00:00:35.116Z,65.23
2018-06-28T00:01:35.103Z,64.95
2018-06-28T00:02:35.099Z,64.85
2018-06-28T00:03:35.103Z,64.95
2018-06-28T00:04:35.112Z,64.95
2018-06-28T00:05:34.857Z,64.56
2018-06-28T00:06:35.103Z,64.76
2018-06-28T00:07:35.100Z,64.95
2018-06-28T00:08:35.103Z,65.14
2018-06-28T00:09:35.126Z,65.43
2018-06-28T00:10:34.857Z,65.11
2018-06-28T00:11:34.864Z,65.2
2018-06-28T00:12:35.102Z,65.59
2018-06-28T00:13:34.864Z,65.78
2018-06-28T00:14:35.110Z,65.88
2018-06-28T00:15:35.167Z,65.78
2018-06-28T00:16:35.107Z,66.16
2018-06-28T00:17:34.864Z,66.35
2018-06-28T00:18:34.870Z,66.26
2018-06-28T00:19:35.125Z,66.55
2018-06-28T00:20:35.109Z,66.45
2018-06-28T00:21:34.865Z,66.26
2018-06-28T00:22:34.868Z,66.45
2018-06-28T00:23:34.873Z,65.88
2018-06-28T00:24:35.109Z,66.55
2018-06-28T00:25:34.849Z,66.55
2018-06-28T00:26:35.115Z,66.26
2018-06-28T00:27:35.103Z,66.74
2018-06-28T00:28:35.104Z,66.55
2018-06-28T00:29:35.107Z,67.12
2018-06-28T00:30:34.947Z,67.5
2018-06-28T00:31:34.854Z,67.79
2018-06-28T00:32:35.110Z,67.89
2018-06-28T00:33:35.106Z,68.18
2018-06-28T00:34:34.857Z,68.33
2018-06-28T00:35:35.113Z,68.14
2018-06-28T00:36:35.913Z,68.14
2018-06-28T00:37:34.855Z,68.18
2018-06-28T00:38:35.110Z,68.14
2018-06-28T00:39:35.111Z,67.85
2018-06-28T00:40:35.120Z,67.79
2018-06-28T00:41:34.855Z,68.18
2018-06-28T00:42:34.850Z,67.85
2018-06-28T00:43:35.139Z,67.99
2018-06-28T00:44:35.110Z,68.08
2018-06-28T00:45:34.863Z,67.79
2018-06-28T00:46:34.855Z,68.18
2018-06-28T00:47:35.115Z,67.57
2018-06-28T00:48:35.104Z,67.57
2018-06-28T00:49:34.853Z,68.18
2018-06-28T00:50:34.855Z,68.08
2018-06-28T00:51:35.109Z,67.79
2018-06-28T00:52:35.104Z,67.89
2018-06-28T00:53:35.106Z,67.66
2018-06-28T00:54:35.101Z,67.76
2018-06-28T00:55:35.113Z,68.05
2018-06-28T00:56:34.867Z,67.76
2018-06-28T00:57:35.106Z,68.33
2018-06-28T00:58:35.111Z,68.33
2018-06-28T00:59:35.113Z,68.33
2018-06-28T01:00:34.909Z,68.24
2018-06-28T01:01:35.109Z,69.1
2018-06-28T01:02:35.112Z,68.72
2018-06-28T01:03:35.109Z,68.81
2018-06-28T01:04:35.112Z,68.72
2018-06-28T01:05:35.111Z,69.29
2018-06-28T01:06:35.106Z,69.1
2018-06-28T01:07:35.109Z,69.01
2018-06-28T01:08:34.856Z,69.1
2018-06-28T01:09:34.849Z,69.68
2018-06-28T01:10:35.113Z,69.48
2018-06-28T01:11:35.110Z,70.06
2018-06-28T01:12:34.855Z,70.44
2018-06-28T01:13:35.111Z,70.64
2018-06-28T01:14:34.852Z,70.35
2018-06-28T01:15:35.217Z,70.6
2018-06-28T01:16:35.119Z,70.6
2018-06-28T01:17:35.111Z,71.08
2018-06-28T01:18:34.860Z,70.7
2018-06-28T01:19:35.115Z,70.89
2018-06-28T01:20:35.101Z,71.08
2018-06-28T01:21:35.098Z,71.08
2018-06-28T01:22:35.113Z,71.27
2018-06-28T01:23:35.099Z,71.27
2018-06-28T01:24:34.847Z,71.37
2018-06-28T01:25:35.118Z,71.75
2018-06-28T01:26:34.850Z,71.46
2018-06-28T01:27:35.140Z,71.37
2018-06-28T01:28:35.103Z,71.27
2018-06-28T01:29:34.850Z,71.66
2018-06-28T01:30:35.128Z,71.46
2018-06-28T01:31:35.104Z,71.37
2018-06-28T01:32:34.854Z,71.56
2018-06-28T01:33:35.093Z,71.27
2018-06-28T01:34:35.099Z,71.37
2018-06-28T01:35:35.124Z,71.46
2018-06-28T01:36:35.091Z,71.37
2018-06-28T01:37:35.100Z,71.37
2018-06-28T01:38:35.095Z,71.84
2018-06-28T01:39:34.843Z,71.84
2018-06-28T01:40:35.099Z,72.32
2018-06-28T01:41:35.090Z,72.23
2018-06-28T01:42:35.098Z,72.13
2018-06-28T01:43:35.107Z,72.61
2018-06-28T01:44:35.090Z,72.71
2018-06-28T01:45:35.133Z,72.99
2018-06-28T01:46:35.098Z,73.38
2018-06-28T01:47:34.840Z,73.09
2018-06-28T01:48:35.092Z,73.34
2018-06-28T01:49:35.091Z,73.54
2018-06-28T01:50:35.100Z,73.28
2018-06-28T01:51:35.089Z,73.47
2018-06-28T01:52:34.842Z,73.09
2018-06-28T01:53:35.099Z,72.8
2018-06-28T01:54:35.093Z,72.96
2018-06-28T01:55:35.094Z,73.15
2018-06-28T01:56:34.866Z,73.66
2018-06-28T01:57:35.093Z,73.54
2018-06-28T01:58:35.110Z,74.4
2018-06-28T01:59:35.103Z,74.11
2018-06-28T02:00:35.143Z,74.3
2018-06-28T02:01:34.844Z,74.11
2018-06-28T02:02:35.092Z,74.11
2018-06-28T02:03:35.087Z,74.3
2018-06-28T02:04:35.084Z,74.4
2018-06-28T02:05:35.155Z,74.3
2018-06-28T02:06:35.635Z,74.2
2018-06-28T02:07:34.829Z,74.3
2018-06-28T02:08:35.082Z,74.4
2018-06-28T02:09:35.100Z,74.2
2018-06-28T02:10:35.098Z,74.4
2018-06-28T02:11:34.825Z,74.77
2018-06-28T02:12:35.079Z,75.07
2018-06-28T02:13:34.826Z,74.68
2018-06-28T02:14:35.095Z,74.68
2018-06-28T02:15:35.121Z,74.49
2018-06-28T02:16:35.074Z,74.49
2018-06-28T02:17:35.081Z,74.2
2018-06-28T02:18:35.080Z,74.58
2018-06-28T02:19:35.083Z,74.58
2018-06-28T02:20:35.077Z,74.68
2018-06-28T02:21:35.090Z,74.3
2018-06-28T02:22:35.080Z,74.58
2018-06-28T02:23:35.080Z,74.77
2018-06-28T02:24:34.823Z,75.07
2018-06-28T02:25:34.831Z,75.64
2018-06-28T02:26:35.081Z,76.02
2018-06-28T02:27:34.820Z,75.93
2018-06-28T02:28:34.818Z,76.08
2018-06-28T02:29:35.080Z,75.93
2018-06-28T02:30:35.083Z,76.46
2018-06-28T02:31:34.814Z,76.65
2018-06-28T02:32:34.823Z,76.84
2018-06-28T02:33:35.070Z,76.56
2018-06-28T02:34:35.064Z,76.84
2018-06-28T02:35:35.072Z,76.75
2018-06-28T02:36:35.067Z,76.65
2018-06-28T02:37:35.063Z,77.13
2018-06-28T02:38:35.071Z,76.65
2018-06-28T02:39:34.809Z,77.42
2018-06-28T02:40:34.889Z,77.42
2018-06-28T02:41:34.807Z,76.94
2018-06-28T02:42:35.071Z,77.33
2018-06-28T02:43:35.075Z,77.8
2018-06-28T02:44:35.060Z,77.99
2018-06-28T02:45:34.810Z,78.09
2018-06-28T02:46:34.811Z,78.09
2018-06-28T02:47:35.059Z,78.09
2018-06-28T02:48:35.077Z,78.86
2018-06-28T02:49:35.059Z,78.86
2018-06-28T02:50:35.054Z,78.19
2018-06-28T02:51:35.067Z,78.57
2018-06-28T02:52:34.800Z,77.9
2018-06-28T02:53:35.059Z,77.42
2018-06-28T02:54:35.055Z,77.9
2018-06-28T02:55:35.053Z,77.94
2018-06-28T02:56:34.797Z,77.26
2018-06-28T02:57:35.049Z,77.65
2018-06-28T02:58:35.057Z,77.65
2018-06-28T02:59:34.808Z,77.65
2018-06-28T03:00:35.052Z,77.84
2018-06-28T03:01:35.048Z,77.94
2018-06-28T03:02:35.049Z,77.65
2018-06-28T03:03:35.045Z,78.03
2018-06-28T03:04:34.786Z,78.03
2018-06-28T03:05:35.045Z,78.13
2018-06-28T03:06:34.795Z,78.13
2018-06-28T03:07:35.048Z,78.22
2018-06-28T03:08:35.047Z,78.03
2018-06-28T03:09:35.046Z,77.65
2018-06-28T03:10:35.048Z,78.03
2018-06-28T03:11:35.048Z,77.65
2018-06-28T03:12:34.789Z,77.65
2018-06-28T03:13:35.049Z,77.65
2018-06-28T03:14:35.037Z,77.75
2018-06-28T03:15:35.034Z,78.03
2018-06-28T03:16:35.032Z,77.55
2018-06-28T03:17:35.042Z,77.46
2018-06-28T03:18:34.779Z,77.46
2018-06-28T03:19:35.088Z,77.55
2018-06-28T03:20:35.028Z,77.46
2018-06-28T03:21:35.030Z,77.17
2018-06-28T03:22:35.025Z,77.65
2018-06-28T03:23:35.023Z,77.46
2018-06-28T03:24:35.035Z,77.36
2018-06-28T03:25:34.769Z,77.46
2018-06-28T03:26:35.021Z,77.94
2018-06-28T03:27:35.033Z,77.75
2018-06-28T03:28:34.764Z,77.65
2018-06-28T03:29:34.769Z,77.84
2018-06-28T03:30:35.035Z,77.84
2018-06-28T03:31:35.027Z,77.94
2018-06-28T03:32:35.016Z,77.84
2018-06-28T03:33:35.040Z,78.03
2018-06-28T03:34:35.012Z,78.19
2018-06-28T03:35:35.087Z,78.03
2018-06-28T03:36:35.029Z,77.8
2018-06-28T03:37:35.036Z,78.19
2018-06-28T03:38:35.020Z,77.8
2018-06-28T03:39:34.768Z,77.46
2018-06-28T03:40:34.773Z,77.75
2018-06-28T03:41:35.011Z,78.03
2018-06-28T03:42:35.001Z,77.84
2018-06-28T03:43:35.013Z,77.84
2018-06-28T03:44:35.011Z,77.8
2018-06-28T03:45:35.006Z,77.8
2018-06-28T03:46:35.033Z,77.8
2018-06-28T03:47:34.750Z,78.09
2018-06-28T03:48:35.001Z,78.09
2018-06-28T03:49:34.997Z,78.38
2018-06-28T03:50:35.011Z,78.57
2018-06-28T03:51:35.001Z,77.99
2018-06-28T03:52:35.005Z,78.57
2018-06-28T03:53:35.008Z,78.57
2018-06-28T03:54:35.003Z,78.57
2018-06-28T03:55:34.743Z,78.47
2018-06-28T03:56:34.995Z,78.13
2018-06-28T03:57:34.749Z,77.99
2018-06-28T03:58:34.737Z,77.9
2018-06-28T03:59:34.991Z,78.32
2018-06-28T04:00:34.992Z,78.28
2018-06-28T04:01:34.744Z,78.22
2018-06-28T04:02:35.003Z,78.47
2018-06-28T04:03:34.983Z,78.09
2018-06-28T04:04:34.730Z,78.28
2018-06-28T04:05:34.745Z,78.66
2018-06-28T04:06:34.767Z,78.57
2018-06-28T04:07:34.980Z,78.57
2018-06-28T04:08:34.983Z,78.13
2018-06-28T04:09:34.985Z,78.61
2018-06-28T04:10:34.734Z,78.32
2018-06-28T04:11:34.981Z,77.99
2018-06-28T04:12:34.981Z,78.13
2018-06-28T04:13:34.725Z,78.13
2018-06-28T04:14:34.725Z,78.22
2018-06-28T04:15:35.008Z,77.65
2018-06-28T04:16:35.028Z,78.03
2018-06-28T04:17:34.727Z,77.46
2018-06-28T04:18:34.978Z,77.08
2018-06-28T04:19:34.733Z,76.73
2018-06-28T04:20:34.979Z,75.96
2018-06-28T04:21:34.974Z,75.48
2018-06-28T04:22:34.728Z,74.82
2018-06-28T04:23:34.731Z,73.8
2018-06-28T04:24:34.977Z,73.22
2018-06-28T04:25:34.976Z,72.07
2018-06-28T04:26:34.986Z,71.63
2018-06-28T04:27:35.104Z,70.29
2018-06-28T04:28:34.978Z,70.19
2018-06-28T04:29:34.725Z,69.74
2018-06-28T04:30:35.013Z,68.59
2018-06-28T04:31:34.984Z,68.34
2018-06-28T04:32:34.980Z,66.9
2018-06-28T04:33:34.987Z,66.26
2018-06-28T04:34:34.983Z,64.66
2018-06-28T04:35:34.735Z,63.41
2018-06-28T04:36:34.984Z,62.77
2018-06-28T04:37:34.739Z,61.91
2018-06-28T04:38:35.000Z,61.33
2018-06-28T04:39:34.747Z,61.52
2018-06-28T04:40:34.996Z,61.52
2018-06-28T04:41:34.995Z,61.91
2018-06-28T04:42:35.005Z,61.26
2018-06-28T04:43:34.997Z,60.88
2018-06-28T04:44:35.024Z,60.39
2018-06-28T04:45:35.036Z,60.11
2018-06-28T04:46:35.010Z,60.04
2018-06-28T04:47:34.766Z,59.94
2018-06-28T04:48:34.762Z,60.14
2018-06-28T04:49:35.026Z,59.27
2018-06-28T04:50:34.775Z,58.5
2018-06-28T04:51:35.032Z,58.12
2018-06-28T04:52:35.039Z,57.18
2018-06-28T04:53:35.091Z,56.8
2018-06-28T04:54:35.121Z,56.15
2018-06-28T04:55:34.792Z,56.15
2018-06-28T04:56:35.042Z,55.29
2018-06-28T04:57:35.302Z,55.12
2018-06-28T04:58:35.054Z,54.64
2018-06-28T04:59:35.066Z,54.74
2018-06-28T05:00:35.069Z,54.74
2018-06-28T05:01:35.091Z,53.58
2018-06-28T05:02:35.074Z,53.61
2018-06-28T05:03:35.083Z,53.19
2018-06-28T05:04:34.830Z,53.13
2018-06-28T05:05:35.084Z,53.22
2018-06-28T05:06:35.087Z,53.31
2018-06-28T05:07:34.842Z,53.58
2018-06-28T05:08:35.107Z,53.77
2018-06-28T05:09:35.109Z,54.35
2018-06-28T05:10:35.110Z,54.44
2018-06-28T05:11:35.108Z,54.64
2018-06-28T05:12:35.185Z,55.48
2018-06-28T05:13:35.153Z,55.48
2018-06-28T05:14:34.876Z,54.9
2018-06-28T05:15:34.883Z,54.44
2018-06-28T05:16:34.882Z,54.18
2018-06-28T05:17:34.886Z,53.25
2018-06-28T05:18:34.891Z,51.73
2018-06-28T05:19:35.170Z,50.57
2018-06-28T05:20:35.163Z,50.28
2018-06-28T05:21:35.164Z,51.12
2018-06-28T05:22:35.163Z,52.19
2018-06-28T05:23:34.916Z,53.31
2018-06-28T05:24:34.931Z,53.48
2018-06-28T05:25:34.939Z,54.93
2018-06-28T05:26:35.186Z,55.38
2018-06-28T05:27:35.191Z,55.77
2018-06-28T05:28:35.206Z,56.22
2018-06-28T05:29:35.199Z,56.6
2018-06-28T05:30:35.205Z,57.06
2018-06-28T05:31:35.205Z,56.96
2018-06-28T05:32:34.961Z,56.96
2018-06-28T05:33:34.957Z,57.15
2018-06-28T05:34:35.317Z,57.25
2018-06-28T05:35:34.975Z,56.38
2018-06-28T05:36:34.972Z,55.83
2018-06-28T05:37:34.975Z,55.55
2018-06-28T05:38:35.226Z,56.41
2018-06-28T05:39:35.238Z,56.6
2018-06-28T05:40:35.245Z,57.28
2018-06-28T05:41:35.004Z,58.34
2018-06-28T05:42:35.246Z,58.31
2018-06-28T05:43:35.309Z,58.4
2018-06-28T05:44:35.251Z,57.54
2018-06-28T05:45:35.320Z,57.54
2018-06-28T05:46:35.296Z,57.06
2018-06-28T05:47:35.268Z,57.28
2018-06-28T05:48:35.024Z,56.8
2018-06-28T05:49:35.272Z,55.57
2018-06-28T05:50:35.298Z,54.16
2018-06-28T05:51:35.296Z,52.55
2018-06-28T05:52:35.274Z,51.25
2018-06-28T05:53:35.271Z,49.82
2018-06-28T05:54:35.033Z,47.72
2018-06-28T05:55:35.294Z,47.94
2018-06-28T05:56:35.045Z,45.95
2018-06-28T05:57:35.553Z,45.01
2018-06-28T05:58:35.056Z,44.74
2018-06-28T05:59:35.333Z,43.68
2018-06-28T06:00:35.323Z,44.91
2018-06-28T06:01:35.348Z,46.34
2018-06-28T06:02:35.330Z,46.42
2018-06-28T06:03:35.341Z,47.07
2018-06-28T06:04:35.342Z,48.3
2018-06-28T06:05:35.355Z,49.07
2018-06-28T06:06:35.355Z,49.82
2018-06-28T06:07:35.103Z,50.4
2018-06-28T06:08:35.361Z,51.05
2018-06-28T06:09:35.369Z,52.57
2018-06-28T06:10:35.373Z,52.83
2018-06-28T06:11:35.129Z,53.89
2018-06-28T06:12:35.392Z,54.16
2018-06-28T06:13:35.405Z,54.74
2018-06-28T06:23:09.073Z,47
2018-06-28T06:24:09.103Z,46.15
2018-06-28T06:25:08.982Z,45.3
2018-06-28T06:26:08.830Z,44.62
2018-06-28T06:27:09.098Z,44.37
2018-06-28T06:28:11.315Z,42.94
2018-06-28T06:29:08.847Z,41.7
2018-06-28T06:30:09.205Z,39.98
2018-06-28T06:31:09.115Z,39.65
2018-06-28T06:32:08.856Z,37.34
2018-06-28T06:33:09.128Z,36.69
2018-06-28T06:34:08.870Z,37.27
2018-06-28T06:35:08.949Z,36.77
2018-06-28T06:36:09.140Z,36.69
2018-06-28T06:37:09.138Z,36.8
2018-06-28T06:38:09.144Z,36.41
2018-06-28T06:39:09.152Z,35.93
2018-06-28T06:40:09.374Z,36.22
2018-06-28T06:41:08.908Z,37.95
2018-06-28T06:42:09.172Z,39.98
2018-06-28T06:43:09.180Z,39.47
2018-06-28T06:44:08.937Z,38.11
2018-06-28T06:45:09.062Z,36.77
2018-06-28T06:46:09.203Z,37.46
2018-06-28T06:47:09.213Z,36
2018-06-28T06:48:09.218Z,36.41
2018-06-28T06:49:09.225Z,36.32
2018-06-28T06:50:09.417Z,37.08
2018-06-28T06:51:09.264Z,38.73
2018-06-28T06:52:08.998Z,37.56
2018-06-28T06:53:09.288Z,35.93
2018-06-28T06:54:09.267Z,34.99
2018-06-28T06:55:09.309Z,33.43
2018-06-28T06:56:09.277Z,33.56
2018-06-28T06:57:09.312Z,34.03
2018-06-28T06:58:09.410Z,35.57
2018-06-28T06:59:09.057Z,34.4
2018-06-28T07:00:09.428Z,33.25
2018-06-28T07:01:09.326Z,32.78
2018-06-28T07:02:09.073Z,32.31
2018-06-28T07:03:09.515Z,32.99
2018-06-28T07:04:09.090Z,33.38
2018-06-28T07:05:09.412Z,33.77
2018-06-28T07:06:09.116Z,33.67
2018-06-28T07:07:09.376Z,35.49
2018-06-28T07:08:09.373Z,36.33
2018-06-28T07:09:09.386Z,36.9
2018-06-28T07:10:09.658Z,38.54
2018-06-28T07:11:09.410Z,38.52
2018-06-28T07:12:09.153Z,38.91
2018-06-28T07:13:09.419Z,38.89
2018-06-28T07:14:09.436Z,40.15
2018-06-28T07:15:09.262Z,39.57
2018-06-28T07:16:09.193Z,38.42
2018-06-28T07:17:09.462Z,37.37
2018-06-28T07:18:09.466Z,37.58
2018-06-28T07:19:09.495Z,38.71
2018-06-28T07:20:09.518Z,40.08
2018-06-28T07:21:09.492Z,39.86
2018-06-28T07:22:09.497Z,40.52
2018-06-28T07:23:09.590Z,41.59
2018-06-28T07:24:09.253Z,42.05
2018-06-28T07:25:09.697Z,41.94
2018-06-28T07:26:09.532Z,42.13
2018-06-28T07:27:09.278Z,41.38
2018-06-28T07:28:11.985Z,41.3
2018-06-28T07:29:09.286Z,40.33
2018-06-28T07:30:09.679Z,40.06
2018-06-28T07:31:09.299Z,40.44
2018-06-28T07:32:09.562Z,41.2
2018-06-28T07:33:09.735Z,41.38
2018-06-28T07:34:09.577Z,41.96
2018-06-28T07:35:09.706Z,42.05
2018-06-28T07:36:09.418Z,42.54
2018-06-28T07:37:09.738Z,42.71
2018-06-28T07:38:09.618Z,42.03
2018-06-28T07:39:09.625Z,40.99
2018-06-28T07:40:09.452Z,39.84
2018-06-28T07:41:09.371Z,39.88
2018-06-28T07:42:09.431Z,38.91
2018-06-28T07:43:09.416Z,38.65
2018-06-28T07:44:09.429Z,39.12
2018-06-28T07:45:09.716Z,38.54
2018-06-28T07:46:09.691Z,37.48
2018-06-28T07:47:09.422Z,36.25
2018-06-28T07:48:09.694Z,35.1
2018-06-28T07:49:09.884Z,36.29
2018-06-28T07:50:09.924Z,35.8
2018-06-28T07:51:09.730Z,34.92
2018-06-28T07:52:09.733Z,34.06
2018-06-28T07:53:09.725Z,33.77
2018-06-28T07:54:09.538Z,34.06
2018-06-28T07:55:09.517Z,34.26
2018-06-28T07:56:09.756Z,34.36
2018-06-28T07:57:09.516Z,36.19
2018-06-28T07:58:09.541Z,36.1
2018-06-28T07:59:09.531Z,36.55
2018-06-28T08:00:09.984Z,37.13
2018-06-28T08:01:09.575Z,37.31
2018-06-28T08:02:09.565Z,36.82
2018-06-28T08:03:09.544Z,37.6
2018-06-28T08:04:09.584Z,37.7
2018-06-28T08:05:09.715Z,37.7
2018-06-28T08:06:09.856Z,37.7
2018-06-28T08:07:09.620Z,37.5
2018-06-28T08:08:09.852Z,37.12
2018-06-28T08:09:09.938Z,37.58
2018-06-28T08:10:09.907Z,37.87
2018-06-28T08:11:09.626Z,37.58
2018-06-28T08:12:09.878Z,38.36
2018-06-28T08:13:09.635Z,39.03
2018-06-28T08:14:09.674Z,39.41
2018-06-28T08:15:09.888Z,39.22
2018-06-28T08:16:09.651Z,40.17
2018-06-28T08:17:09.895Z,40.83
2018-06-28T08:18:09.966Z,41.67
2018-06-28T08:19:09.659Z,43.01
2018-06-28T08:20:09.822Z,43.3
2018-06-28T08:21:09.924Z,41.55
2018-06-28T08:22:09.934Z,41.96
2018-06-28T08:23:09.949Z,41.1
2018-06-28T08:24:09.953Z,40.91
2018-06-28T08:25:10.018Z,41.03
2018-06-28T08:26:09.718Z,40.06
2018-06-28T08:27:09.968Z,40.34
2018-06-28T08:28:10.026Z,41.22
2018-06-28T08:29:09.981Z,40.93
2018-06-28T08:30:09.798Z,40.47
2018-06-28T08:31:09.997Z,39.78
2018-06-28T08:32:10.003Z,39.49
2018-06-28T08:33:10.032Z,40.37
2018-06-28T08:34:09.772Z,41.49
2018-06-28T08:35:10.255Z,42.71
2018-06-28T08:36:10.121Z,43.66
2018-06-28T08:37:09.778Z,44.32
2018-06-28T08:38:10.040Z,45.75
2018-06-28T08:39:10.051Z,46.7
2018-06-28T08:40:10.232Z,48.22
2018-06-28T08:41:10.058Z,48.03
2018-06-28T08:42:10.065Z,48.32
2018-06-28T08:43:09.857Z,48.71
2018-06-28T08:44:10.126Z,48.81
2018-06-28T08:45:10.258Z,49.29
2018-06-28T08:46:10.093Z,49.56
2018-06-28T08:47:10.095Z,49.46
2018-06-28T08:48:10.109Z,49.85
2018-06-28T08:49:10.280Z,49.82
2018-06-28T08:50:10.218Z,50.98
2018-06-28T08:51:10.132Z,50.7
2018-06-28T08:52:10.124Z,50.7
2018-06-28T08:53:10.128Z,51.56
2018-06-28T08:54:10.131Z,50.98
2018-06-28T08:55:10.175Z,50.7
2018-06-28T08:56:09.886Z,53.69
2018-06-28T08:57:10.143Z,50.7
2018-06-28T08:58:10.172Z,50.72
2018-06-28T08:59:14.154Z,49.85
2018-06-28T09:00:10.335Z,49.56
2018-06-28T09:01:10.171Z,50.72
2018-06-28T09:02:09.926Z,49.82
2018-06-28T09:03:10.196Z,50.98
2018-06-28T09:04:10.213Z,51.18
2018-06-28T09:05:10.285Z,50.6
2018-06-28T09:06:10.200Z,50.89
2018-06-28T09:07:09.938Z,50.98
2018-06-28T09:08:09.945Z,51.25
2018-06-28T09:09:10.215Z,51.54
2018-06-28T09:10:09.981Z,51.32
2018-06-28T09:11:10.215Z,52.48
2018-06-28T09:12:09.962Z,53.83
2018-06-28T09:13:10.221Z,53.71
2018-06-28T09:14:10.231Z,53.91
2018-06-28T09:15:10.403Z,52.84
2018-06-28T09:16:10.237Z,52.45
2018-06-28T09:17:09.994Z,53.03
2018-06-28T09:18:09.991Z,53.42
2018-06-28T09:19:09.985Z,52.55
2018-06-28T09:20:10.074Z,52.45
2018-06-28T09:21:09.999Z,53.42
2018-06-28T09:22:10.255Z,52.65
2018-06-28T09:23:10.472Z,52.55
2018-06-28T09:24:10.019Z,52
2018-06-28T09:25:10.052Z,51.13
2018-06-28T09:26:10.284Z,50.48
2018-06-28T09:27:10.282Z,51.76
2018-06-28T09:28:10.047Z,51.66
2018-06-28T09:29:10.284Z,51.28
2018-06-28T09:30:10.104Z,50.7
2018-06-28T09:31:10.294Z,49.82
2018-06-28T09:32:10.042Z,50.72
2018-06-28T09:33:10.306Z,51.01
2018-06-28T09:34:10.062Z,50.72
2018-06-28T09:35:10.488Z,50.72
2018-06-28T09:36:10.312Z,50.62
2018-06-28T09:37:10.077Z,50.04
2018-06-28T09:38:10.326Z,50.74
2018-06-28T09:39:10.100Z,49.68
2018-06-28T09:40:10.407Z,48.9
2018-06-28T09:41:10.356Z,49.46
2018-06-28T09:42:10.088Z,50.6
2018-06-28T09:43:10.378Z,51.56
2018-06-28T09:44:10.360Z,50.31
2018-06-28T09:45:10.325Z,50.31
2018-06-28T09:46:10.360Z,49.82
2018-06-28T09:47:10.366Z,50.86
2018-06-28T09:48:10.389Z,51.15
2018-06-28T09:49:10.122Z,51.44
2018-06-28T09:50:10.615Z,52.53
2018-06-28T09:51:10.396Z,49.82
2018-06-28T09:52:10.154Z,48.76
2018-06-28T09:53:10.156Z,49.44
2018-06-28T09:54:10.161Z,49.95
2018-06-28T09:55:10.363Z,50.04
2018-06-28T09:56:10.415Z,49.17
2018-06-28T09:57:10.421Z,49.75
2018-06-28T09:58:10.425Z,49.56
2018-06-28T09:59:10.167Z,48.97
2018-06-28T10:00:10.358Z,48.88
2018-06-28T10:01:10.434Z,48.52
2018-06-28T10:02:10.189Z,47.36
2018-06-28T10:03:10.447Z,46.99
2018-06-28T10:04:10.441Z,47.09
2018-06-28T10:05:10.619Z,46.31
2018-06-28T10:06:10.454Z,46.12
2018-06-28T10:07:10.219Z,46.43
2018-06-28T10:08:10.235Z,47.38
2018-06-28T10:09:10.225Z,47.38
2018-06-28T10:10:10.739Z,46.99
2018-06-28T10:11:10.484Z,46.51
2018-06-28T10:12:10.232Z,45.47
2018-06-28T10:13:10.568Z,44.32
2018-06-28T10:14:10.493Z,44.42
2018-06-28T10:15:10.314Z,44.34
2018-06-28T10:16:10.526Z,45.7
2018-06-28T10:17:10.514Z,44.05
2018-06-28T10:18:10.678Z,43.4
2018-06-28T10:19:10.524Z,44.54
2018-06-28T10:20:10.531Z,45.68
2018-06-28T10:21:10.540Z,46.82
2018-06-28T10:22:10.284Z,46.31
2018-06-28T10:53:42.532Z,57.77
2018-06-28T10:54:42.279Z,59.8
2018-06-28T10:55:42.270Z,60.96
2018-06-28T10:56:42.271Z,62.31
2018-06-28T10:57:42.530Z,62.86
2018-06-28T10:58:42.280Z,64.4
2018-06-28T10:59:42.532Z,64.59
2018-06-28T11:00:42.544Z,65.08
2018-06-28T11:01:42.351Z,65.17
2018-06-28T11:02:42.531Z,64.86
2018-06-28T11:03:43.334Z,63.02
2018-06-28T11:04:42.542Z,63.4
2018-06-28T11:05:42.277Z,64.47
2018-06-28T11:06:42.285Z,66.2
2018-06-28T11:07:42.538Z,67.85
2018-06-28T11:08:42.676Z,68.91
2018-06-28T11:09:42.564Z,69.68
2018-06-28T11:10:42.562Z,70.36
2018-06-28T11:11:42.579Z,71.58
2018-06-28T11:12:42.548Z,72.83
2018-06-28T11:13:42.550Z,72.34
2018-06-28T11:14:42.565Z,72.69
2018-06-28T11:15:42.700Z,74.43
2018-06-28T11:16:42.319Z,74.97
2018-06-28T11:17:42.571Z,75.26
2018-06-28T11:18:42.692Z,76.8
2018-06-28T11:19:42.316Z,77.83
2018-06-28T11:20:42.623Z,78.11
2018-06-28T11:21:42.316Z,78.69
2018-06-28T11:22:42.593Z,79.66
2018-06-28T11:23:42.323Z,80.91
2018-06-28T11:24:42.573Z,81.24
2018-06-28T11:25:42.328Z,81.33
2018-06-28T11:26:42.767Z,81.33
2018-06-28T11:27:42.582Z,81.72
2018-06-28T11:28:42.341Z,81.62
2018-06-28T11:29:42.334Z,79.06
2018-06-28T11:30:42.585Z,79.25
2018-06-28T11:31:42.348Z,79.93
2018-06-28T11:32:42.605Z,77.61
2018-06-28T11:33:42.599Z,77.42
2018-06-28T11:34:42.342Z,76.1
2018-06-28T11:35:42.604Z,76.93
2018-06-28T11:36:42.605Z,77.07
2018-06-28T11:37:42.607Z,75.72
2018-06-28T11:38:42.361Z,76.88
2018-06-28T11:39:42.363Z,75.92
2018-06-28T11:40:42.613Z,75.34
2018-06-28T11:41:42.718Z,75.05
2018-06-28T11:42:42.679Z,74.31
2018-06-28T11:43:42.369Z,74.51
2018-06-28T11:44:42.630Z,75.09
2018-06-28T11:45:42.632Z,73.06
2018-06-28T11:46:42.638Z,73.06
2018-06-28T11:47:42.642Z,72.96
2018-06-28T11:48:42.388Z,72.09
2018-06-28T11:49:42.647Z,71.9
2018-06-28T11:50:42.652Z,71.45
2018-06-28T11:51:42.652Z,71.55
2018-06-28T11:52:42.652Z,70.78
2018-06-28T11:53:44.004Z,70.14
2018-06-28T11:54:42.697Z,70.32
2018-06-28T11:55:42.690Z,69.36
2018-06-28T11:56:42.415Z,66.88
2018-06-28T11:57:42.692Z,66.4
2018-06-28T11:58:42.676Z,65.66
2018-06-28T11:59:42.678Z,65.47
2018-06-28T12:00:42.427Z,64.89
2018-06-28T12:01:42.686Z,65.27
2018-06-28T12:02:42.434Z,65.66
2018-06-28T12:03:42.694Z,65.56
2018-06-28T12:04:42.440Z,65.95
2018-06-28T12:05:42.446Z,65.17
2018-06-28T12:06:42.709Z,64.4
2018-06-28T12:07:42.701Z,64.18
2018-06-28T12:08:42.723Z,64.18
2018-06-28T12:09:42.461Z,64.76
2018-06-28T12:10:42.720Z,65.34
2018-06-28T12:11:42.719Z,64.95
2018-06-28T12:12:42.473Z,67.27
2018-06-28T12:13:42.493Z,67.36
2018-06-28T12:14:42.738Z,64.18
2018-06-28T12:15:42.802Z,62.53
2018-06-28T12:16:42.746Z,63.79
2018-06-28T12:17:42.746Z,63.98
2018-06-28T12:18:42.749Z,62.92
2018-06-28T12:19:42.807Z,63.5
2018-06-28T12:20:42.756Z,64.43
2018-06-28T12:21:42.757Z,65.3
2018-06-28T12:22:42.511Z,67.62
2018-06-28T12:23:42.788Z,68.2
2018-06-28T12:24:42.789Z,68.3
2018-06-28T12:25:42.782Z,68.49
2018-06-28T12:26:42.786Z,68.68
2018-06-28T12:27:42.807Z,68.2
2018-06-28T12:28:42.534Z,68.01
2018-06-28T12:29:42.791Z,68.3
2018-06-28T12:30:42.802Z,68.1
2018-06-28T12:31:42.565Z,68.59
2018-06-28T12:32:42.580Z,69.07
2018-06-28T12:33:42.558Z,68.78
2018-06-28T12:34:42.840Z,69.36
2018-06-28T12:35:42.575Z,70.97
2018-06-28T12:36:42.572Z,70.97
2018-06-28T12:37:42.848Z,69.71
2018-06-28T12:38:42.571Z,72.03
2018-06-28T12:39:42.851Z,73.09
2018-06-28T12:40:42.942Z,72.22
2018-06-28T12:41:42.846Z,71.94
2018-06-28T12:42:42.592Z,71.06
2018-06-28T12:43:42.851Z,68.55
2018-06-28T12:44:42.857Z,68.75
2018-06-28T12:45:42.861Z,68.71
2018-06-28T12:46:42.865Z,69.71
2018-06-28T12:47:42.866Z,71.7
2018-06-28T12:48:42.609Z,70.94
2018-06-28T12:49:42.870Z,70.36
2018-06-28T12:50:42.889Z,69.97
2018-06-28T12:51:42.873Z,70.94
2018-06-28T12:52:42.874Z,72.58
2018-06-28T12:53:42.896Z,73.35
2018-06-28T12:54:42.640Z,72.86
2018-06-28T12:55:42.645Z,73.44
2018-06-28T12:56:42.647Z,73.96
2018-06-28T12:57:42.684Z,73.28
2018-06-28T12:58:42.891Z,72.42
2018-06-28T12:59:42.652Z,70.78
2018-06-28T13:00:43.008Z,70.62
2018-06-28T13:01:42.934Z,70.23
2018-06-28T13:02:42.916Z,70.42
2018-06-28T13:03:42.908Z,70.62
2018-06-28T13:04:42.925Z,69.74
2018-06-28T13:05:42.970Z,68.17
2018-06-28T13:06:42.678Z,68.65
2018-06-28T13:07:42.681Z,68.94
2018-06-28T13:08:42.943Z,69.81
2018-06-28T13:09:42.679Z,70.48
2018-06-28T13:10:42.935Z,68.84
2018-06-28T13:11:42.699Z,68.17
2018-06-28T13:12:43.003Z,69.29
2018-06-28T13:13:42.759Z,69.81
2018-06-28T13:14:42.954Z,70.97
2018-06-28T13:15:42.696Z,71.16
2018-06-28T13:16:42.958Z,70.68
2018-06-28T13:17:42.963Z,71.55
2018-06-28T13:18:43.108Z,71.74
2018-06-28T13:19:42.974Z,70.78
2018-06-28T13:20:42.715Z,71.94
2018-06-28T13:21:42.973Z,70.68
2018-06-28T13:22:42.720Z,70.58
2018-06-28T13:23:42.986Z,70.87
2018-06-28T13:24:43.104Z,69.71
2018-06-28T13:25:42.990Z,69.78
2018-06-28T13:26:42.990Z,70
2018-06-28T13:27:42.995Z,70.06
2018-06-28T13:28:43.195Z,70.68
2018-06-28T13:29:43.008Z,69.81
2018-06-28T13:30:42.757Z,70.16
2018-06-28T13:31:42.790Z,71.32
2018-06-28T13:32:43.027Z,72.13
2018-06-28T13:33:42.776Z,73
2018-06-28T13:34:43.038Z,72.03